createdAt,value
2018-02-24T00:01:36.744Z,56.50
2018-02-24T00:04:03.103Z,52.95
2018-02-24T00:06:30.205Z,55.90
2018-02-24T00:08:56.590Z,51.70
2018-02-24T00:11:22.940Z,53.67
2018-02-24T00:13:49.292Z,53.83
2018-02-24T00:16:15.688Z,52.40
2018-02-24T00:18:42.060Z,56.78
2018-02-24T00:21:08.434Z,54.92
2018-02-24T00:23:35.526Z,52.88
2018-02-24T00:26:01.898Z,53.25
2018-02-24T00:28:28.255Z,55.53
2018-02-24T00:30:55.346Z,53.00
2018-02-24T00:33:22.005Z,56.20
2018-02-24T00:35:48.371Z,56.85
2018-02-24T00:38:14.733Z,50.78
2018-02-24T00:40:41.088Z,61.00
2018-02-24T00:43:07.453Z,55.85
2018-02-24T00:45:34.558Z,52.65
2018-02-24T00:48:00.934Z,52.03
2018-02-24T00:50:28.042Z,57.05
2018-02-24T00:52:54.401Z,53.10
2018-02-24T00:55:20.784Z,59.50
2018-02-24T00:57:47.173Z,62.65
2018-02-24T01:00:14.265Z,58.00
2018-02-24T01:02:40.654Z,56.55
2018-02-24T01:05:08.640Z,57.72
2018-02-24T01:07:35.001Z,59.17
2018-02-24T01:10:01.369Z,56.42
2018-02-24T01:12:27.735Z,71.12
2018-02-24T01:14:54.103Z,57.50
2018-02-24T01:17:20.458Z,67.47
2018-02-24T01:19:46.821Z,67.47
2018-02-24T01:22:13.932Z,55.88
2018-02-24T01:24:40.313Z,67.40
2018-02-24T01:27:06.720Z,68.82
2018-02-24T01:29:33.889Z,66.45
2018-02-24T01:32:00.258Z,68.15
2018-02-24T01:34:26.644Z,70.93
2018-02-24T01:36:53.739Z,66.68
2018-02-24T01:39:20.113Z,67.45
2018-02-24T01:41:47.217Z,65.70
2018-02-24T01:44:13.610Z,69.28
2018-02-24T01:46:39.977Z,73.30
2018-02-24T01:49:06.331Z,73.65
2018-02-24T01:51:32.686Z,71.40
2018-02-24T01:53:59.794Z,74.03
2018-02-24T01:56:26.165Z,101.32
2018-02-24T01:58:53.260Z,77.53
2018-02-24T02:01:19.637Z,65.37
2018-02-24T02:03:46.758Z,72.80
2018-02-24T02:06:13.130Z,68.20
2018-02-24T02:08:40.243Z,76.22
2018-02-24T02:11:06.617Z,72.18
2018-02-24T02:13:33.736Z,76.75
2018-02-24T02:16:00.098Z,71.93
2018-02-24T02:18:27.202Z,68.20
2018-02-24T02:20:53.550Z,72.85
2018-02-24T02:23:19.914Z,73.97
2018-02-24T02:25:46.278Z,73.45
2018-02-24T02:28:12.674Z,75.80
2018-02-24T02:30:39.050Z,68.45
2018-02-24T02:33:05.405Z,73.97
2018-02-24T02:35:32.512Z,69.65
2018-02-24T02:37:58.881Z,73.53
2018-02-24T02:40:25.273Z,73.50
2018-02-24T02:42:51.708Z,65.00
2018-02-24T02:45:18.101Z,69.55
2018-02-24T02:47:44.475Z,66.60
2018-02-24T02:50:10.887Z,76.03
2018-02-24T02:52:37.269Z,68.05
2018-02-24T02:55:03.634Z,68.72
2018-02-24T02:57:30.725Z,71.75
2018-02-24T02:59:57.094Z,81.28
2018-02-24T03:02:24.299Z,74.68
2018-02-24T03:04:50.680Z,72.00
2018-02-24T03:07:17.818Z,74.22
2018-02-24T03:09:44.180Z,74.12
2018-02-24T03:12:10.530Z,69.20
2018-02-24T03:14:36.897Z,66.37
2018-02-24T03:17:03.303Z,74.15
2018-02-24T03:19:29.665Z,72.85
2018-02-24T03:21:56.019Z,75.97
2018-02-24T03:24:23.132Z,75.80
2018-02-24T03:26:49.483Z,75.60
2018-02-24T03:29:15.880Z,74.55
2018-02-24T03:31:42.253Z,60.00
2018-02-24T03:34:08.713Z,79.18
2018-02-24T03:36:35.073Z,70.97
2018-02-24T03:39:01.433Z,72.00
2018-02-24T03:41:29.324Z,62.75
2018-02-24T03:43:56.436Z,67.95
2018-02-24T03:46:22.852Z,74.30
2018-02-24T03:48:49.234Z,68.60
2018-02-24T03:51:16.366Z,68.22
2018-02-24T03:53:42.719Z,67.85
2018-02-24T03:56:09.824Z,66.57
2018-02-24T03:58:36.197Z,61.85
2018-02-24T04:01:03.341Z,62.80
2018-02-24T04:03:30.447Z,62.35
2018-02-24T04:05:56.845Z,59.28
2018-02-24T04:08:23.222Z,67.03
2018-02-24T04:10:49.573Z,66.40
2018-02-24T04:13:15.939Z,65.68
2018-02-24T04:15:42.303Z,64.05
2018-02-24T04:18:08.657Z,64.55
2018-02-24T04:20:35.026Z,68.93
2018-02-24T04:23:02.118Z,69.45
2018-02-24T04:25:28.483Z,85.15
2018-02-24T04:27:54.840Z,94.78
2018-02-24T04:30:21.207Z,85.05
2018-02-24T04:32:47.609Z,100.30
2018-02-24T04:35:13.986Z,77.78
2018-02-24T04:37:40.349Z,70.43
2018-02-24T04:40:07.451Z,61.63
2018-02-24T04:42:33.824Z,68.82
2018-02-24T04:45:00.918Z,72.50
2018-02-24T04:47:27.345Z,75.78
2018-02-24T04:49:53.706Z,73.43
2018-02-24T04:52:20.262Z,70.82
2018-02-24T04:54:47.358Z,70.15
2018-02-24T04:57:13.745Z,74.57
2018-02-24T04:59:40.856Z,58.75
2018-02-24T05:02:07.204Z,55.10
2018-02-24T05:04:33.580Z,64.50
2018-02-24T05:06:59.940Z,66.35
2018-02-24T05:09:26.310Z,66.25
2018-02-24T05:11:52.671Z,75.15
2018-02-24T05:14:19.778Z,59.15
2018-02-24T05:16:46.931Z,63.28
2018-02-24T05:19:13.341Z,83.05
2018-02-24T05:21:39.698Z,70.20
2018-02-24T05:24:06.092Z,55.85
2018-02-24T05:26:32.446Z,75.82
2018-02-24T05:28:58.846Z,60.30
2018-02-24T05:31:25.231Z,53.72
2018-02-24T05:33:51.589Z,63.47
2018-02-24T05:36:18.707Z,54.95
2018-02-24T05:38:45.080Z,72.50
2018-02-24T05:41:11.448Z,70.35
2018-02-24T05:43:37.813Z,73.43
2018-02-24T05:46:04.918Z,74.22
2018-02-24T05:48:31.317Z,73.47
2018-02-24T05:50:57.710Z,71.65
2018-02-24T05:53:24.086Z,64.72
2018-02-24T05:55:50.461Z,66.90
2018-02-24T05:58:16.842Z,69.03
2018-02-24T06:00:43.193Z,57.38
2018-02-24T06:03:09.546Z,53.60
2018-02-24T06:05:35.893Z,63.95
2018-02-24T06:08:02.265Z,64.05
2018-02-24T06:10:28.630Z,67.12
2018-02-24T06:12:55.038Z,62.58
2018-02-24T06:15:21.424Z,66.70
2018-02-24T06:17:47.790Z,70.07
2018-02-24T06:20:14.159Z,96.93
2018-02-24T06:22:41.284Z,62.55
2018-02-24T06:25:07.659Z,58.30
2018-02-24T06:27:34.070Z,61.55
2018-02-24T06:30:00.429Z,64.82
2018-02-24T06:32:26.821Z,79.47
2018-02-24T06:34:53.229Z,191.32
2018-02-24T06:37:19.592Z,125.95
2018-02-24T06:39:46.010Z,94.87
2018-02-24T06:42:12.390Z,74.40
2018-02-24T06:44:39.499Z,77.82
2018-02-24T06:47:05.849Z,93.07
2018-02-24T06:49:32.207Z,66.20
2018-02-24T06:51:59.316Z,101.38
2018-02-24T06:54:25.665Z,99.37
2018-02-24T06:56:52.042Z,71.03
2018-02-24T06:59:18.413Z,82.20
2018-02-24T07:01:44.791Z,73.40
2018-02-24T07:04:11.903Z,83.87
2018-02-24T07:06:38.262Z,97.22
2018-02-24T07:09:05.371Z,85.70
2018-02-24T07:11:31.740Z,87.12
2018-02-24T07:13:58.863Z,77.97
2018-02-24T07:16:25.228Z,62.42
2018-02-24T07:18:52.315Z,147.27
2018-02-24T07:21:18.678Z,131.98
2018-02-24T07:23:45.054Z,90.62
2018-02-24T07:26:11.416Z,84.20
2018-02-24T07:28:37.811Z,127.20
2018-02-24T07:31:04.892Z,73.82
2018-02-24T07:33:31.321Z,77.50
2018-02-24T07:35:57.670Z,73.85
2018-02-24T07:38:24.030Z,72.55
2018-02-24T07:40:50.378Z,92.40
2018-02-24T07:43:17.482Z,73.28
2018-02-24T07:45:43.829Z,78.55
2018-02-24T07:48:11.680Z,87.18
2018-02-24T07:50:38.088Z,71.37
2018-02-24T07:53:04.453Z,64.90
2018-02-24T07:55:31.237Z,76.07
2018-02-24T07:57:57.595Z,91.43
2018-02-24T08:00:23.950Z,79.85
2018-02-24T08:02:50.332Z,107.53
2018-02-24T08:05:16.747Z,94.05
2018-02-24T08:07:43.896Z,60.75
2018-02-24T08:10:11.220Z,113.80
2018-02-24T08:12:37.609Z,64.75
2018-02-24T08:15:04.038Z,66.70
2018-02-24T08:17:30.482Z,61.13
2018-02-24T08:19:56.818Z,58.47
2018-02-24T08:22:23.188Z,61.13
2018-02-24T08:24:49.562Z,61.10
2018-02-24T08:27:15.936Z,135.65
2018-02-24T08:29:42.295Z,382.05
2018-02-24T08:32:09.456Z,112.53
2018-02-24T08:34:35.829Z,89.78
2018-02-24T08:37:02.231Z,84.10
2018-02-24T08:39:28.634Z,99.97
2018-02-24T08:41:55.020Z,85.13
2018-02-24T08:44:21.396Z,66.00
2018-02-24T08:46:48.504Z,69.37
2018-02-24T08:49:14.883Z,66.68
2018-02-24T08:51:41.255Z,67.18
2018-02-24T08:54:07.618Z,70.70
2018-02-24T08:56:33.985Z,69.37
2018-02-24T09:01:34.393Z,66.60
2018-02-24T09:04:00.779Z,66.80
2018-02-24T09:06:27.145Z,65.10
2018-02-24T09:08:53.983Z,64.30
2018-02-24T09:11:20.355Z,58.53
2018-02-24T09:13:46.757Z,57.73
2018-02-24T09:16:13.143Z,65.83
2018-02-24T09:18:39.531Z,61.33
2018-02-24T09:21:05.951Z,62.27
2018-02-24T09:23:32.357Z,69.05
2018-02-24T09:25:58.709Z,40.53
2018-02-24T09:28:25.066Z,37.90
2018-02-24T09:30:52.236Z,40.28
2018-02-24T09:33:18.559Z,44.00
2018-02-24T09:35:45.695Z,45.12
2018-02-24T09:38:12.044Z,40.88
2018-02-24T09:40:39.163Z,39.78
2018-02-24T09:43:05.544Z,38.73
2018-02-24T09:45:31.911Z,44.87
2018-02-24T09:47:58.288Z,39.22
2018-02-24T09:50:25.387Z,37.80
2018-02-24T09:52:51.780Z,29.73
2018-02-24T09:55:18.149Z,38.47
2018-02-24T09:57:44.505Z,32.38
2018-02-24T10:00:10.862Z,33.80
2018-02-24T10:02:37.978Z,38.30
2018-02-24T10:05:04.379Z,35.13
2018-02-24T10:07:30.759Z,41.50
2018-02-24T10:09:57.907Z,31.10
2018-02-24T10:12:24.382Z,27.33
2018-02-24T10:14:50.768Z,30.83
2018-02-24T10:17:17.139Z,25.88
2018-02-24T10:19:43.544Z,26.50
2018-02-24T10:22:10.721Z,27.13
2018-02-24T10:24:37.128Z,31.60
2018-02-24T10:27:04.250Z,32.22
2018-02-24T10:29:30.599Z,27.55
2018-02-24T10:31:56.967Z,27.55
2018-02-24T10:34:23.377Z,25.50
2018-02-24T10:36:49.806Z,27.65
2018-02-24T10:39:16.919Z,27.65
2018-02-24T10:41:43.257Z,27.33
2018-02-24T10:44:09.640Z,29.40
2018-02-24T10:46:36.002Z,27.55
2018-02-24T10:49:12.655Z,32.58
2018-02-24T10:51:39.023Z,27.77
2018-02-24T10:54:05.388Z,30.12
2018-02-24T10:56:32.494Z,28.35
2018-02-24T10:58:58.901Z,28.15
2018-02-24T11:01:25.289Z,33.60
2018-02-24T11:03:51.627Z,28.23
2018-02-24T11:06:18.727Z,28.15
2018-02-24T11:08:45.090Z,30.83
2018-02-24T11:11:11.514Z,27.35
2018-02-24T11:13:37.914Z,26.60
2018-02-24T11:16:04.297Z,28.50
2018-02-24T11:18:31.412Z,29.10
2018-02-24T11:20:57.772Z,33.85
2018-02-24T11:23:24.143Z,27.05
2018-02-24T11:25:50.519Z,31.95
2018-02-24T11:28:16.895Z,26.80
2018-02-24T11:30:43.250Z,25.70
2018-02-24T11:33:09.611Z,26.07
2018-02-24T11:35:35.992Z,24.67
2018-02-24T11:38:02.529Z,27.43
2018-02-24T11:40:28.866Z,27.63
2018-02-24T11:42:55.247Z,21.37
2018-02-24T11:45:21.622Z,28.07
2018-02-24T11:47:47.991Z,23.50
2018-02-24T11:50:14.356Z,24.63
2018-02-24T11:52:40.738Z,21.25
2018-02-24T11:55:07.947Z,21.02
2018-02-24T11:57:35.069Z,21.62
2018-02-24T12:00:01.451Z,21.75
2018-02-24T12:02:27.830Z,26.17
2018-02-24T12:04:54.222Z,23.75
2018-02-24T12:07:20.602Z,20.90
2018-02-24T12:09:47.759Z,18.98
2018-02-24T12:12:14.150Z,21.83
2018-02-24T12:14:40.546Z,19.12
2018-02-24T12:17:06.938Z,23.33
2018-02-24T12:19:33.315Z,19.58
2018-02-24T12:21:59.696Z,15.30
2018-02-24T12:24:26.060Z,23.27
2018-02-24T12:26:53.178Z,16.02
2018-02-24T12:29:19.558Z,22.37
2018-02-24T12:31:45.944Z,22.92
2018-02-24T12:34:12.316Z,20.65
2018-02-24T12:36:38.684Z,19.48
2018-02-24T12:39:05.100Z,17.60
2018-02-24T12:41:31.452Z,14.55
2018-02-24T12:43:57.809Z,13.88
2018-02-24T12:46:24.192Z,17.98
2018-02-24T12:48:50.575Z,17.40
2018-02-24T12:51:17.698Z,16.87
2018-02-24T12:53:44.093Z,20.42
2018-02-24T12:56:10.470Z,15.07
2018-02-24T12:58:37.598Z,20.42
2018-02-24T13:01:03.987Z,18.37
2018-02-24T13:03:31.096Z,19.33
2018-02-24T13:05:57.468Z,18.23
2018-02-24T13:08:24.596Z,14.75
2018-02-24T13:10:50.962Z,20.40
2018-02-24T13:13:17.353Z,19.62
2018-02-24T13:15:43.726Z,18.98
2018-02-24T13:18:10.100Z,18.58
2018-02-24T13:20:36.500Z,17.12
2018-02-24T13:23:02.926Z,15.60
2018-02-24T13:25:29.285Z,23.17
2018-02-24T13:27:55.707Z,20.98
2018-02-24T13:30:22.124Z,26.73
2018-02-24T13:32:48.522Z,25.55
2018-02-24T13:35:15.642Z,20.77
2018-02-24T13:37:42.036Z,15.02
2018-02-24T13:40:09.438Z,13.13
2018-02-24T13:42:35.874Z,14.57
2018-02-24T13:45:02.266Z,14.90
2018-02-24T13:47:28.674Z,11.73
2018-02-24T13:49:55.778Z,11.07
2018-02-24T13:52:22.143Z,11.38
2018-02-24T13:54:49.244Z,15.50
2018-02-24T13:57:15.602Z,14.30
2018-02-24T13:59:42.726Z,13.38
2018-02-24T14:02:09.090Z,11.20
2018-02-24T14:04:35.453Z,14.70
2018-02-24T14:07:01.846Z,12.37
2018-02-24T14:09:28.212Z,12.45
2018-02-24T14:11:55.310Z,8.38
2018-02-24T14:14:21.696Z,13.55
2018-02-24T14:16:48.052Z,10.25
2018-02-24T14:19:14.425Z,11.20
2018-02-24T14:21:41.522Z,9.93
2018-02-24T14:24:08.191Z,9.02
2018-02-24T14:26:34.580Z,13.07
2018-02-24T14:29:00.950Z,10.85
2018-02-24T14:31:27.342Z,10.23
2018-02-24T14:33:53.748Z,17.17
2018-02-24T14:36:20.773Z,17.10
2018-02-24T14:38:47.177Z,14.68
2018-02-24T14:41:13.607Z,17.02
2018-02-24T14:43:39.988Z,12.45
2018-02-24T14:46:07.091Z,15.60
2018-02-24T14:48:33.455Z,12.43
2018-02-24T14:51:01.300Z,18.45
2018-02-24T14:53:27.681Z,16.23
2018-02-24T14:55:54.064Z,10.82
2018-02-24T14:58:20.428Z,13.20
2018-02-24T15:00:47.524Z,13.23
2018-02-24T15:03:13.892Z,15.30
2018-02-24T15:05:40.266Z,15.73
2018-02-24T15:08:06.631Z,12.55
2018-02-24T15:10:32.999Z,14.43
2018-02-24T15:12:59.362Z,14.63
2018-02-24T15:15:25.713Z,13.40
2018-02-24T15:17:52.104Z,15.45
2018-02-24T15:20:19.247Z,10.43
2018-02-24T15:22:45.609Z,11.07
2018-02-24T15:25:12.011Z,12.65
2018-02-24T15:27:39.153Z,11.18
2018-02-24T15:30:05.520Z,23.90
2018-02-24T15:32:31.897Z,13.52
2018-02-24T15:34:58.278Z,18.02
2018-02-24T15:37:24.701Z,11.85
2018-02-24T15:39:51.794Z,9.65
2018-02-24T15:42:18.151Z,16.65
2018-02-24T15:44:44.598Z,11.35
2018-02-24T15:47:11.702Z,13.05
2018-02-24T15:49:38.115Z,8.50
2018-02-24T15:52:04.472Z,11.25
2018-02-24T15:54:30.855Z,13.85
2018-02-24T15:56:58.017Z,10.68
2018-02-24T15:59:24.385Z,8.75
2018-02-24T16:01:50.742Z,13.15
2018-02-24T16:04:17.142Z,12.10
2018-02-24T16:06:43.542Z,13.30
2018-02-24T16:09:10.651Z,15.52
2018-02-24T16:11:37.026Z,13.30
2018-02-24T16:14:03.387Z,11.48
2018-02-24T16:16:29.786Z,15.40
2018-02-24T16:18:56.143Z,9.30
2018-02-24T16:21:22.514Z,17.25
2018-02-24T16:23:48.866Z,8.45
2018-02-24T16:26:15.952Z,15.07
2018-02-24T16:28:42.321Z,10.10
2018-02-24T16:31:08.670Z,13.55
2018-02-24T16:33:35.767Z,11.45
2018-02-24T16:36:02.138Z,13.40
2018-02-24T16:38:28.540Z,14.73
2018-02-24T16:40:54.902Z,13.40
2018-02-24T16:43:21.315Z,16.10
2018-02-24T16:45:47.667Z,15.30
2018-02-24T16:48:14.105Z,11.70
2018-02-24T16:50:40.460Z,10.95
2018-02-24T16:53:06.852Z,9.32
2018-02-24T16:55:33.203Z,9.32
2018-02-24T16:58:00.295Z,11.10
2018-02-24T17:00:26.667Z,13.40
2018-02-24T17:02:53.027Z,11.30
2018-02-24T17:05:20.127Z,12.13
2018-02-24T17:07:46.471Z,23.23
2018-02-24T17:10:12.861Z,13.60
2018-02-24T17:12:39.227Z,19.50
2018-02-24T17:15:05.614Z,10.90
2018-02-24T17:17:31.972Z,16.20
2018-02-24T17:19:58.321Z,10.05
2018-02-24T17:22:24.676Z,16.25
2018-02-24T17:24:51.773Z,13.18
2018-02-24T17:27:18.125Z,10.50
2018-02-24T17:29:44.519Z,10.57
2018-02-24T17:32:10.905Z,13.52
2018-02-24T17:34:37.270Z,22.58
2018-02-24T17:37:04.386Z,17.27
2018-02-24T17:39:32.239Z,17.90
2018-02-24T17:41:58.718Z,10.85
2018-02-24T17:44:25.836Z,11.95
2018-02-24T17:46:52.242Z,18.95
2018-02-24T17:49:18.594Z,9.70
2018-02-24T17:51:44.979Z,13.68
2018-02-24T17:54:11.349Z,16.77
2018-02-24T17:56:37.714Z,11.70
2018-02-24T17:59:04.147Z,15.57
2018-02-24T18:01:31.276Z,17.83
2018-02-24T18:03:59.213Z,14.25
2018-02-24T18:06:25.578Z,10.88
2018-02-24T18:08:52.831Z,9.38
2018-02-24T18:11:19.183Z,15.18
2018-02-24T18:13:46.293Z,11.27
2018-02-24T18:16:12.666Z,15.25
2018-02-24T18:18:39.028Z,13.50
2018-02-24T18:21:05.971Z,13.23
2018-02-24T18:23:32.328Z,15.68
2018-02-24T18:25:58.709Z,14.38
2018-02-24T18:28:25.078Z,13.30
2018-02-24T18:30:51.420Z,13.68
2018-02-24T18:33:17.804Z,10.93
2018-02-24T18:35:44.196Z,14.73
2018-02-24T18:38:10.564Z,14.38
2018-02-24T18:40:36.923Z,16.42
2018-02-24T18:43:03.288Z,17.77
2018-02-24T18:45:29.754Z,14.13
2018-02-24T18:47:56.092Z,18.70
2018-02-24T18:50:22.450Z,18.45
2018-02-24T18:52:48.870Z,16.23
2018-02-24T18:55:15.228Z,17.25
2018-02-24T18:57:41.654Z,18.10
2018-02-24T19:00:08.040Z,17.73
2018-02-24T19:02:35.200Z,17.40
2018-02-24T19:05:01.553Z,15.38
2018-02-24T19:07:27.914Z,14.80
2018-02-24T19:09:54.293Z,18.27
2018-02-24T19:12:20.669Z,25.75
2018-02-24T19:14:47.042Z,17.65
2018-02-24T19:17:14.208Z,17.10
2018-02-24T19:19:40.639Z,13.43
2018-02-24T19:22:07.747Z,19.40
2018-02-24T19:24:34.123Z,21.37
2018-02-24T19:27:00.707Z,15.15
2018-02-24T19:29:27.882Z,15.45
2018-02-24T19:31:55.021Z,19.48
2018-02-24T19:34:21.374Z,22.27
2018-02-24T19:36:48.479Z,16.65
2018-02-24T19:39:14.873Z,40.85
2018-02-24T19:41:41.576Z,16.92
2018-02-24T19:44:08.682Z,16.33
2018-02-24T19:46:35.108Z,17.00
2018-02-24T19:49:01.496Z,18.30
2018-02-24T19:51:28.599Z,19.50
2018-02-24T19:53:54.958Z,20.75
2018-02-24T19:56:21.384Z,19.95
2018-02-24T19:58:49.292Z,21.85
2018-02-24T20:01:15.833Z,22.75
2018-02-24T20:03:43.050Z,18.75
2018-02-24T20:06:10.194Z,18.00
2018-02-24T20:08:36.553Z,19.05
2018-02-24T20:11:03.687Z,22.48
2018-02-24T20:13:30.089Z,18.17
2018-02-24T20:15:56.456Z,25.12
2018-02-24T20:18:23.600Z,19.12
2018-02-24T20:20:50.721Z,21.87
2018-02-24T20:23:17.123Z,18.00
2018-02-24T20:25:43.512Z,19.52
2018-02-24T20:28:10.651Z,21.80
2018-02-24T20:30:36.994Z,19.62
2018-02-24T20:33:04.107Z,22.08
2018-02-24T20:35:30.460Z,20.00
2018-02-24T20:37:56.847Z,19.17
2018-02-24T20:40:23.263Z,21.42
2018-02-24T20:42:50.175Z,24.17
2018-02-24T20:45:16.529Z,20.65
2018-02-24T20:47:42.898Z,21.80
2018-02-24T20:50:09.250Z,23.85
2018-02-24T20:52:35.724Z,25.55
2018-02-24T20:55:02.997Z,30.25
2018-02-24T20:57:29.559Z,27.30
2018-02-24T20:59:55.946Z,27.45
2018-02-24T21:02:22.301Z,23.52
2018-02-24T21:04:48.678Z,23.62
2018-02-24T21:07:15.088Z,28.00
2018-02-24T21:09:41.493Z,31.37
2018-02-24T21:12:07.877Z,25.83
2018-02-24T21:14:34.995Z,21.73
2018-02-24T21:17:01.367Z,26.65
2018-02-24T21:19:28.458Z,33.15
2018-02-24T21:21:54.820Z,29.65
2018-02-24T21:24:21.208Z,33.97
2018-02-24T21:26:47.564Z,40.30
2018-02-24T21:29:13.928Z,28.62
2018-02-24T21:31:40.292Z,28.25
2018-02-24T21:34:06.685Z,42.13
2018-02-24T21:36:33.302Z,32.97
2018-02-24T21:38:59.655Z,25.52
2018-02-24T21:41:26.028Z,26.62
2018-02-24T21:43:52.403Z,32.60
2018-02-24T21:46:18.765Z,24.42
2018-02-24T21:48:45.872Z,22.77
2018-02-24T21:51:12.292Z,26.05
2018-02-24T21:53:38.718Z,27.35
2018-02-24T21:56:05.122Z,29.08
2018-02-24T21:58:31.483Z,31.40
2018-02-24T22:00:57.897Z,31.75
2018-02-24T22:03:24.269Z,34.58
2018-02-24T22:05:50.632Z,30.27
2018-02-24T22:08:16.985Z,30.65
2018-02-24T22:10:43.478Z,36.72
2018-02-24T22:13:09.847Z,32.58
2018-02-24T22:15:36.247Z,31.95
2018-02-24T22:18:02.604Z,29.80
2018-02-24T22:20:29.710Z,34.22
2018-02-24T22:22:56.116Z,31.30
2018-02-24T22:25:22.463Z,33.38
2018-02-24T22:27:48.832Z,34.58
2018-02-24T22:30:15.933Z,25.48
2018-02-24T22:32:42.291Z,27.35
2018-02-24T22:35:08.660Z,26.83
2018-02-24T22:37:35.758Z,31.52
2018-02-24T22:40:02.167Z,29.08
2018-02-24T22:42:28.530Z,25.85
2018-02-24T22:44:54.882Z,37.03
2018-02-24T22:47:22.031Z,25.67
2018-02-24T22:49:49.167Z,23.50
2018-02-24T22:52:15.509Z,30.37
2018-02-24T22:54:41.867Z,25.37
2018-02-24T22:57:11.056Z,26.02
2018-02-24T22:59:37.464Z,25.48
2018-02-24T23:02:04.577Z,28.08
2018-02-24T23:04:30.962Z,25.27
2018-02-24T23:07:00.169Z,29.58
2018-02-24T23:09:26.534Z,35.80
2018-02-24T23:11:52.897Z,32.35
2018-02-24T23:14:19.301Z,33.88
2018-02-24T23:16:45.716Z,32.65
2018-02-24T23:19:12.102Z,32.80
2018-02-24T23:21:39.202Z,46.95
2018-02-24T23:24:05.575Z,44.85
2018-02-24T23:26:31.916Z,44.65
2018-02-24T23:28:58.276Z,35.53
2018-02-24T23:31:24.653Z,38.63
2018-02-24T23:33:51.007Z,31.55
2018-02-24T23:36:18.136Z,35.05
2018-02-24T23:38:44.543Z,31.02
2018-02-24T23:41:10.895Z,32.75
2018-02-24T23:43:37.253Z,40.90
2018-02-24T23:46:03.608Z,35.30
2018-02-24T23:48:30.003Z,38.20
2018-02-24T23:50:57.867Z,33.47
2018-02-24T23:53:24.239Z,35.10
2018-02-24T23:55:50.636Z,41.88
2018-02-24T23:58:18.532Z,34.40
